Search for airport 
image banner adimage banner adimage banner ad
image banner ad

89CA - Swanson Ranch Nr 2 Airport

Located in Riverdale, United States

ICAO - 89CA, IATA -

Data provided by Airmate  

General information

Coordinates: N35°38'40" W120°51'1"
Elevation is 1488 feet MSL.
Magnetic variation is 15° East
View others Airports in California

Operational data

Special qualification required
Current time UTC:
Current local time:
Weather at : KPRB - Paso Robles Muni ( 20 km )
METAR: KPRB 210153Z AUTO 09007KT 10SM CLR 29/06 A2992 RMK AO2 SLP125 T02890061
TAF: KPRB 202334Z 2100/2124 12008KT P6SM SKC FM210500 VRB03KT P6SM SKC FM211700 12008KT P6SM SKC FM212000 22010KT P6SM SKC
View NOTAMs / SUP AIP / TFR affecting this airport [VIEW]
Communications frequencies: [VIEW]

Runways:

RWY identifierQFULength (ft)Width (ft)SurfaceLDA (ft)
04335325ASPH
22335325ASPH

Airport contact information

Address: Riverdale United States

Satellite view of 89CA